Terminal Aerodrome Forecast
Issued by NWS

Home | Current Version | Previous Version | Text Only | Print | Product List | Glossary On
Versions: 1 2 3 4 5 6 7 8 9 10 11 12 13
000
FTUS43 KIND 061100
TAFBMG
TAF
KBMG 061120Z 0612/0712 00000KT P6SM SCT250
     FM061600 18007KT P6SM SCT060
     FM070000 00000KT P6SM SCT250
      AMD LTD TO CLD VIS AND WIND TIL 061300=

USA.gov is the U.S. government's official web portal to all federal, state and local government web resources and services.